createdAt,value
2018-07-06T00:02:16.917Z,2.70
2018-07-06T00:04:53.685Z,2.67
2018-07-06T00:07:27.017Z,2.50
2018-07-06T00:10:00.320Z,2.60
2018-07-06T00:12:33.830Z,2.40
2018-07-06T00:15:07.189Z,2.63
2018-07-06T00:17:40.442Z,3.13
2018-07-06T00:20:13.505Z,2.43
2018-07-06T00:22:48.562Z,2.50
2018-07-06T00:25:21.675Z,2.50
2018-07-06T00:27:54.786Z,2.83
2018-07-06T00:30:27.974Z,2.60
2018-07-06T00:33:01.102Z,3.07
2018-07-06T00:35:34.153Z,2.93
2018-07-06T00:38:07.214Z,2.50
2018-07-06T00:40:40.127Z,3.03
2018-07-06T00:43:13.374Z,3.60
2018-07-06T00:45:46.379Z,3.57
2018-07-06T00:48:19.480Z,3.27
2018-07-06T00:50:53.653Z,3.37
2018-07-06T00:53:26.664Z,3.40
2018-07-06T00:55:59.623Z,3.10
2018-07-06T00:58:32.787Z,3.53
2018-07-06T01:01:05.968Z,3.20
2018-07-06T01:03:40.138Z,3.87
2018-07-06T01:06:13.382Z,3.40
2018-07-06T01:08:47.466Z,3.30
2018-07-06T01:11:20.591Z,3.43
2018-07-06T01:13:53.790Z,4.03
2018-07-06T01:16:27.239Z,3.80
2018-07-06T01:19:00.126Z,3.47
2018-07-06T01:21:33.093Z,3.77
2018-07-06T01:24:06.156Z,3.60
2018-07-06T01:26:39.366Z,4.10
2018-07-06T01:29:12.368Z,4.40
2018-07-06T01:31:45.446Z,3.87
2018-07-06T01:34:18.503Z,4.30
2018-07-06T01:36:51.632Z,3.63
2018-07-06T01:39:24.814Z,4.50
2018-07-06T01:41:57.801Z,4.20
2018-07-06T01:44:30.920Z,4.10
2018-07-06T01:47:03.985Z,4.70
2018-07-06T01:49:37.012Z,4.50
2018-07-06T01:52:09.995Z,4.53
2018-07-06T01:54:42.938Z,4.63
2018-07-06T01:57:15.888Z,5.10
2018-07-06T01:59:49.038Z,4.03
2018-07-06T02:02:21.941Z,5.27
2018-07-06T02:04:54.881Z,4.67
2018-07-06T02:07:27.879Z,4.50
2018-07-06T02:10:00.988Z,4.77
2018-07-06T02:12:34.060Z,5.00
2018-07-06T02:15:06.997Z,5.03
2018-07-06T02:17:39.986Z,5.53
2018-07-06T02:20:13.051Z,5.20
2018-07-06T02:22:46.033Z,5.30
2018-07-06T02:25:19.125Z,5.80
2018-07-06T02:27:52.272Z,7.43
2018-07-06T02:30:25.332Z,7.00
2018-07-06T02:32:58.317Z,6.77
2018-07-06T02:35:31.324Z,5.97
2018-07-06T02:38:04.377Z,6.93
2018-07-06T02:40:37.386Z,6.70
2018-07-06T02:43:10.488Z,7.80
2018-07-06T02:45:43.628Z,6.90
2018-07-06T02:48:16.626Z,6.90
2018-07-06T02:50:49.612Z,5.87
2018-07-06T02:53:22.749Z,6.93
2018-07-06T02:55:55.811Z,7.80
2018-07-06T02:58:28.969Z,7.07
2018-07-06T03:01:02.039Z,6.90
2018-07-06T03:03:35.245Z,6.87
2018-07-06T03:06:08.353Z,6.10
2018-07-06T03:08:41.528Z,7.43
2018-07-06T03:11:14.619Z,6.67
2018-07-06T03:13:47.866Z,6.30
2018-07-06T03:16:20.955Z,5.70
2018-07-06T03:18:55.046Z,5.70
2018-07-06T03:21:28.082Z,5.40
2018-07-06T03:24:01.081Z,5.40
2018-07-06T03:26:34.077Z,5.60
2018-07-06T03:29:07.056Z,5.43
2018-07-06T03:31:40.190Z,5.10
2018-07-06T03:34:14.499Z,5.87
2018-07-06T03:36:47.536Z,5.60
2018-07-06T03:39:20.572Z,4.53
2018-07-06T03:41:53.454Z,5.03
2018-07-06T03:44:26.492Z,4.33
2018-07-06T03:46:59.622Z,4.77
2018-07-06T03:49:32.720Z,4.03
2018-07-06T03:52:05.786Z,4.23
2018-07-06T03:54:39.058Z,5.00
2018-07-06T03:57:12.240Z,3.97
2018-07-06T03:59:45.361Z,4.80
2018-07-06T04:02:18.309Z,3.90
2018-07-06T04:04:51.353Z,4.17
2018-07-06T04:07:24.511Z,4.47
2018-07-06T04:09:57.692Z,4.20
2018-07-06T04:12:30.777Z,4.73
2018-07-06T04:15:03.934Z,4.37
2018-07-06T04:17:37.138Z,4.97
2018-07-06T04:20:11.324Z,4.60
2018-07-06T04:22:44.422Z,4.00
2018-07-06T04:25:17.606Z,5.20
2018-07-06T04:27:50.651Z,4.53
2018-07-06T04:30:23.838Z,4.73
2018-07-06T04:32:56.897Z,5.30
2018-07-06T04:35:30.110Z,5.47
2018-07-06T04:38:03.313Z,5.37
2018-07-06T04:40:36.737Z,5.47
2018-07-06T04:43:09.852Z,5.90
2018-07-06T04:45:43.038Z,5.30
2018-07-06T04:48:21.278Z,5.70
2018-07-06T04:50:54.468Z,4.93
2018-07-06T04:53:27.436Z,5.23
2018-07-06T04:56:00.746Z,5.87
2018-07-06T04:58:33.842Z,5.17
2018-07-06T05:01:11.733Z,5.67
2018-07-06T05:03:45.882Z,5.77
2018-07-06T05:06:22.477Z,5.03
2018-07-06T05:09:04.413Z,5.80
2018-07-06T05:11:38.177Z,5.37
2018-07-06T05:14:11.423Z,5.87
2018-07-06T05:16:44.643Z,5.90
2018-07-06T05:19:17.562Z,6.37
2018-07-06T05:21:50.601Z,6.00
2018-07-06T05:24:23.689Z,6.47
2018-07-06T05:26:57.050Z,6.10
2018-07-06T05:29:30.177Z,6.30
2018-07-06T05:32:03.417Z,6.00
2018-07-06T05:34:36.656Z,5.90
2018-07-06T05:37:09.846Z,6.30
2018-07-06T05:39:43.057Z,5.53
2018-07-06T05:42:16.137Z,5.37
2018-07-06T05:44:49.226Z,6.37
2018-07-06T05:47:22.279Z,5.43
2018-07-06T05:49:55.340Z,6.23
2018-07-06T05:52:28.695Z,5.70
2018-07-06T05:55:01.866Z,5.80
2018-07-06T05:57:34.976Z,5.77
2018-07-06T06:00:08.249Z,6.17
2018-07-06T06:02:41.425Z,5.10
2018-07-06T06:05:14.502Z,5.57
2018-07-06T06:07:41.400Z,5.10
2018-07-06T06:10:08.802Z,4.90
2018-07-06T06:12:36.239Z,5.57
2018-07-06T06:15:03.623Z,5.20
2018-07-06T06:17:31.057Z,6.03
2018-07-06T06:19:58.402Z,5.00
2018-07-06T06:22:25.797Z,5.67
2018-07-06T06:24:53.209Z,6.03
2018-07-06T06:27:20.524Z,7.27
2018-07-06T06:29:48.952Z,6.60
2018-07-06T06:32:16.405Z,6.57
2018-07-06T06:34:43.802Z,5.90
2018-07-06T06:37:11.257Z,6.07
2018-07-06T06:39:38.738Z,6.00
2018-07-06T06:42:06.168Z,6.37
2018-07-06T06:44:33.555Z,5.43
2018-07-06T06:47:00.912Z,5.40
2018-07-06T06:49:29.502Z,6.40
2018-07-06T06:51:56.923Z,6.00
2018-07-06T06:54:24.406Z,5.80
2018-07-06T06:56:52.167Z,5.80
2018-07-06T06:59:20.237Z,5.00
2018-07-06T07:01:47.710Z,5.60
2018-07-06T07:04:15.166Z,5.30
2018-07-06T07:06:42.650Z,5.00
2018-07-06T07:09:10.091Z,5.97
2018-07-06T07:11:37.430Z,5.17
2018-07-06T07:14:04.879Z,4.90
2018-07-06T07:16:33.736Z,5.03
2018-07-06T07:19:01.142Z,4.20
2018-07-06T07:21:30.729Z,4.03
2018-07-06T07:24:01.806Z,3.43
2018-07-06T07:26:29.492Z,3.80
2018-07-06T07:29:00.565Z,3.27
2018-07-06T07:31:35.177Z,3.23
2018-07-06T07:34:02.771Z,2.93
2018-07-06T07:36:32.424Z,3.07
2018-07-06T07:39:00.062Z,3.37
2018-07-06T07:41:27.395Z,3.37
2018-07-06T07:43:55.087Z,3.20
2018-07-06T07:46:22.540Z,3.30
2018-07-06T07:48:50.007Z,2.97
2018-07-06T07:51:53.334Z,3.40
2018-07-06T07:54:22.015Z,3.00
2018-07-06T07:56:49.563Z,3.03
2018-07-06T07:59:18.820Z,2.80
2018-07-06T08:01:48.180Z,3.13
2018-07-06T08:04:15.646Z,4.20
2018-07-06T08:06:43.119Z,3.57
2018-07-06T08:09:10.578Z,3.50
2018-07-06T08:11:38.046Z,3.17
2018-07-06T08:14:05.433Z,3.40
2018-07-06T08:16:32.820Z,3.50
2018-07-06T08:19:00.276Z,3.40
2018-07-06T08:21:27.712Z,3.30
2018-07-06T08:23:55.130Z,3.67
2018-07-06T08:26:22.513Z,3.17
2018-07-06T08:28:49.944Z,3.43
2018-07-06T08:31:17.365Z,3.57
2018-07-06T08:33:50.504Z,3.37
2018-07-06T08:36:24.802Z,3.20
2018-07-06T08:38:52.145Z,3.70
2018-07-06T08:41:19.544Z,3.20
2018-07-06T08:43:46.972Z,3.80
2018-07-06T08:46:14.342Z,3.80
2018-07-06T08:48:41.770Z,3.90
2018-07-06T08:51:09.187Z,3.97
2018-07-06T08:53:36.562Z,3.90
2018-07-06T08:56:03.972Z,3.97
2018-07-06T08:58:31.389Z,4.63
2018-07-06T09:00:58.759Z,4.50
2018-07-06T09:03:26.128Z,3.80
2018-07-06T09:05:53.483Z,4.00
2018-07-06T09:08:20.930Z,3.93
2018-07-06T09:10:48.336Z,3.97
2018-07-06T09:13:15.687Z,3.57
2018-07-06T09:15:43.086Z,3.17
2018-07-06T09:18:10.551Z,3.13
2018-07-06T09:20:38.000Z,3.63
2018-07-06T09:23:05.373Z,3.10
2018-07-06T09:25:32.792Z,3.60
2018-07-06T09:28:00.126Z,3.87
2018-07-06T09:30:27.498Z,3.50
2018-07-06T09:32:55.140Z,4.90
2018-07-06T09:35:22.465Z,3.70
2018-07-06T09:37:49.939Z,3.13
2018-07-06T09:40:17.363Z,3.10
2018-07-06T09:42:44.775Z,3.43
2018-07-06T09:45:12.210Z,3.00
2018-07-06T09:47:39.571Z,2.87
2018-07-06T09:50:06.946Z,3.23
2018-07-06T09:52:34.361Z,3.00
2018-07-06T09:55:01.754Z,2.70
2018-07-06T09:57:29.135Z,2.80
2018-07-06T09:59:56.515Z,2.77
2018-07-06T10:02:23.887Z,2.83
2018-07-06T10:04:51.378Z,2.43
2018-07-06T10:07:19.049Z,2.53
2018-07-06T10:09:46.536Z,2.77
2018-07-06T10:12:13.992Z,2.73
2018-07-06T10:14:41.534Z,3.33
2018-07-06T10:17:08.889Z,3.27
2018-07-06T10:19:36.306Z,2.90
2018-07-06T10:22:04.462Z,3.07
2018-07-06T10:24:31.832Z,2.80
2018-07-06T10:26:59.178Z,3.30
2018-07-06T10:29:32.320Z,3.07
2018-07-06T10:32:12.980Z,3.20
2018-07-06T10:34:40.345Z,3.47
2018-07-06T10:37:07.744Z,3.87
2018-07-06T10:39:42.941Z,3.93
2018-07-06T10:42:10.514Z,4.43
2018-07-06T10:44:38.120Z,4.73
2018-07-06T10:47:05.609Z,6.30
2018-07-06T10:49:33.339Z,6.80
2018-07-06T10:52:01.246Z,7.20
2018-07-06T10:54:28.772Z,6.30
2018-07-06T10:56:56.426Z,7.47
2018-07-06T10:59:24.213Z,7.93
2018-07-06T11:01:52.474Z,7.57
2018-07-06T11:04:20.246Z,7.53
2018-07-06T11:06:48.614Z,6.30
2018-07-06T11:09:16.013Z,6.57
2018-07-06T11:11:43.496Z,6.93
2018-07-06T11:14:10.951Z,4.87
2018-07-06T11:16:38.677Z,4.63
2018-07-06T11:19:06.294Z,4.40
2018-07-06T11:21:33.653Z,4.40
2018-07-06T11:24:01.029Z,4.40
2018-07-06T11:26:28.497Z,4.73
2018-07-06T11:28:56.882Z,5.20
2018-07-06T11:31:24.270Z,4.67
2018-07-06T11:33:51.923Z,6.70
2018-07-06T11:36:19.345Z,6.07
2018-07-06T11:38:46.766Z,6.43
2018-07-06T11:41:14.136Z,6.10
2018-07-06T11:43:41.510Z,6.53
2018-07-06T11:46:09.152Z,6.50
2018-07-06T11:48:36.756Z,6.17
2018-07-06T11:51:04.632Z,7.00
2018-07-06T11:53:32.120Z,6.90
2018-07-06T11:55:59.861Z,7.53
2018-07-06T11:58:27.490Z,6.93
2018-07-06T12:00:55.053Z,7.80
2018-07-06T12:03:22.683Z,6.20
2018-07-06T12:05:50.372Z,7.07
2018-07-06T12:08:18.093Z,7.17
2018-07-06T12:10:45.709Z,6.60
2018-07-06T12:13:13.286Z,6.97
2018-07-06T12:15:40.901Z,5.40
2018-07-06T12:18:08.346Z,5.37
2018-07-06T12:20:35.841Z,5.70
2018-07-06T12:23:03.282Z,3.80
2018-07-06T12:25:30.620Z,4.57
2018-07-06T12:27:58.001Z,5.53
2018-07-06T12:30:25.524Z,5.80
2018-07-06T12:32:52.976Z,5.67
2018-07-06T12:35:20.395Z,6.20
2018-07-06T12:37:47.776Z,4.83
2018-07-06T12:40:15.290Z,6.20
2018-07-06T12:42:42.713Z,6.90
2018-07-06T12:45:10.126Z,5.70
2018-07-06T12:47:37.592Z,5.70
2018-07-06T12:50:05.457Z,5.00
2018-07-06T12:52:33.421Z,5.20
2018-07-06T12:55:00.989Z,6.60
2018-07-06T12:57:28.386Z,5.23
2018-07-06T12:59:55.879Z,4.43
2018-07-06T13:02:23.298Z,3.67
2018-07-06T13:04:50.637Z,3.53
2018-07-06T13:07:18.061Z,3.50
2018-07-06T13:09:45.523Z,3.17
2018-07-06T13:12:12.978Z,3.53
2018-07-06T13:14:40.504Z,3.70
2018-07-06T13:17:07.954Z,3.40
2018-07-06T13:19:35.382Z,3.80
2018-07-06T13:22:02.812Z,3.60
2018-07-06T13:24:30.171Z,3.57
2018-07-06T13:26:57.659Z,3.40
2018-07-06T13:29:25.296Z,3.20
2018-07-06T13:31:52.773Z,3.47
2018-07-06T13:34:20.250Z,3.90
2018-07-06T13:36:47.727Z,3.70
2018-07-06T13:39:15.472Z,3.10
2018-07-06T13:41:43.187Z,3.70
2018-07-06T13:44:10.649Z,3.10
2018-07-06T13:46:38.163Z,3.40
2018-07-06T13:49:05.605Z,3.67
2018-07-06T13:51:33.007Z,3.60
2018-07-06T13:54:00.514Z,3.13
2018-07-06T13:56:27.985Z,3.77
2018-07-06T13:58:55.476Z,4.03
2018-07-06T14:01:22.881Z,3.90
2018-07-06T14:03:50.357Z,4.10
2018-07-06T14:06:17.737Z,3.20
2018-07-06T14:08:45.188Z,3.37
2018-07-06T14:11:12.668Z,3.33
2018-07-06T14:13:40.105Z,2.87
2018-07-06T14:16:07.512Z,3.10
2018-07-06T14:18:34.955Z,2.40
2018-07-06T14:21:03.415Z,2.57
2018-07-06T14:23:30.843Z,2.90
2018-07-06T14:25:58.297Z,2.63
2018-07-06T14:28:25.671Z,3.07
2018-07-06T14:30:53.171Z,2.80
2018-07-06T14:33:20.652Z,2.23
2018-07-06T14:35:48.068Z,2.10
2018-07-06T14:38:15.451Z,2.00
2018-07-06T14:40:42.854Z,2.67
2018-07-06T14:43:10.383Z,2.17
2018-07-06T14:45:37.765Z,1.87
2018-07-06T14:48:05.260Z,2.23
2018-07-06T14:50:32.751Z,1.93
2018-07-06T14:53:00.647Z,2.00
2018-07-06T14:55:28.062Z,2.03
2018-07-06T14:57:55.425Z,5.23
2018-07-06T15:00:23.068Z,2.30
2018-07-06T15:02:50.506Z,2.20
2018-07-06T15:05:17.974Z,2.23
2018-07-06T15:07:45.451Z,1.90
2018-07-06T15:10:12.947Z,2.03
2018-07-06T15:12:40.437Z,1.60
2018-07-06T15:15:07.842Z,1.80
2018-07-06T15:17:35.672Z,1.40
2018-07-06T15:20:03.113Z,1.53
2018-07-06T15:22:30.649Z,1.80
2018-07-06T15:24:58.011Z,1.73
2018-07-06T15:27:25.520Z,1.60
2018-07-06T15:29:54.810Z,1.07
2018-07-06T15:32:22.414Z,1.43
2018-07-06T15:34:50.044Z,2.03
2018-07-06T15:37:17.617Z,1.20
2018-07-06T15:39:45.174Z,1.73
2018-07-06T15:42:12.775Z,1.53
2018-07-06T15:44:40.246Z,1.37
2018-07-06T15:47:08.866Z,1.60
2018-07-06T15:49:36.364Z,1.63
2018-07-06T15:52:03.818Z,1.53
2018-07-06T15:54:31.577Z,1.73
2018-07-06T15:56:59.117Z,1.00
2018-07-06T15:59:26.633Z,1.90
2018-07-06T16:01:54.100Z,1.50
2018-07-06T16:04:23.530Z,1.20
2018-07-06T16:06:50.991Z,1.07
2018-07-06T16:09:18.488Z,1.60
2018-07-06T16:11:46.847Z,1.10
2018-07-06T16:14:14.535Z,1.60
2018-07-06T16:16:41.998Z,1.30
2018-07-06T16:19:09.476Z,1.43
2018-07-06T16:21:37.319Z,1.37
2018-07-06T16:24:04.843Z,1.60
2018-07-06T16:26:32.389Z,1.50
2018-07-06T16:28:59.862Z,2.10
2018-07-06T16:31:27.335Z,1.80
2018-07-06T16:33:54.784Z,1.67
2018-07-06T16:36:22.296Z,1.90
2018-07-06T16:38:50.726Z,1.53
2018-07-06T16:41:18.202Z,1.40
2018-07-06T16:43:45.703Z,1.70
2018-07-06T16:46:13.185Z,1.43
2018-07-06T16:48:42.774Z,1.30
2018-07-06T16:51:10.658Z,1.57
2018-07-06T16:53:38.052Z,1.40
2018-07-06T16:56:05.945Z,1.27
2018-07-06T16:58:33.698Z,1.10
2018-07-06T17:01:01.268Z,1.30
2018-07-06T17:03:28.661Z,1.20
2018-07-06T17:05:56.027Z,1.30
2018-07-06T17:08:23.645Z,1.00
2018-07-06T17:10:51.112Z,1.10
2018-07-06T17:13:18.541Z,1.10
2018-07-06T17:15:47.710Z,1.30
2018-07-06T17:18:15.105Z,1.43
2018-07-06T17:20:42.459Z,1.40
2018-07-06T17:23:09.867Z,1.40
2018-07-06T17:25:37.348Z,1.10
2018-07-06T17:28:05.256Z,1.20
2018-07-06T17:30:32.659Z,1.20
2018-07-06T17:33:00.034Z,1.23
2018-07-06T17:35:27.665Z,1.13
2018-07-06T17:37:55.110Z,1.23
2018-07-06T17:40:22.564Z,0.90
2018-07-06T17:42:50.098Z,1.40
2018-07-06T17:45:17.749Z,1.47
2018-07-06T17:47:45.354Z,1.40
2018-07-06T17:50:12.797Z,1.13
2018-07-06T17:52:40.225Z,1.40
2018-07-06T17:55:07.810Z,1.23
2018-07-06T17:57:37.142Z,1.53
2018-07-06T18:00:04.679Z,1.00
2018-07-06T18:02:32.133Z,1.50
2018-07-06T18:04:59.502Z,1.37
2018-07-06T18:07:26.921Z,1.40
2018-07-06T18:09:54.337Z,1.40
2018-07-06T18:12:21.909Z,1.57
2018-07-06T18:14:49.377Z,1.17
2018-07-06T18:17:17.798Z,1.47
2018-07-06T18:19:45.205Z,1.30
2018-07-06T18:22:26.914Z,1.20
2018-07-06T18:25:06.592Z,1.10
2018-07-06T18:27:33.987Z,1.40
2018-07-06T18:30:01.517Z,1.70
2018-07-06T18:32:35.958Z,1.73
2018-07-06T18:35:03.351Z,1.40
2018-07-06T18:37:30.913Z,1.50
2018-07-06T18:39:58.312Z,1.40
2018-07-06T18:42:25.703Z,1.67
2018-07-06T18:44:53.114Z,1.40
2018-07-06T18:47:20.510Z,1.63
2018-07-06T18:49:47.937Z,1.90
2018-07-06T18:52:15.325Z,1.30
2018-07-06T18:54:42.750Z,1.67
2018-07-06T18:57:20.422Z,1.40
2018-07-06T18:59:48.044Z,1.40
2018-07-06T19:02:15.476Z,1.23
2018-07-06T19:04:42.905Z,1.67
2018-07-06T19:07:10.280Z,1.17
2018-07-06T19:09:37.676Z,1.63
2018-07-06T19:12:05.187Z,1.23
2018-07-06T19:14:32.869Z,1.30
2018-07-06T19:17:00.252Z,1.53
2018-07-06T19:19:28.755Z,1.80
2018-07-06T19:21:56.243Z,1.47
2018-07-06T19:24:29.224Z,1.80
2018-07-06T19:26:56.626Z,1.50
2018-07-06T19:29:24.224Z,1.20
2018-07-06T19:31:51.667Z,1.20
2018-07-06T19:34:19.154Z,1.83
2018-07-06T19:36:46.622Z,1.97
2018-07-06T19:39:15.118Z,2.10
2018-07-06T19:41:42.631Z,1.40
2018-07-06T19:44:09.989Z,1.83
2018-07-06T19:46:37.422Z,1.80
2018-07-06T19:49:04.925Z,1.77
2018-07-06T19:51:37.858Z,1.70
2018-07-06T19:54:05.737Z,1.70
2018-07-06T19:56:33.201Z,1.57
2018-07-06T19:59:00.695Z,1.83
2018-07-06T20:01:28.171Z,1.67
2018-07-06T20:03:55.690Z,1.57
2018-07-06T20:06:23.117Z,1.50
2018-07-06T20:08:50.610Z,1.53
2018-07-06T20:11:18.072Z,1.30
2018-07-06T20:13:45.546Z,2.10
2018-07-06T20:16:13.027Z,1.90
2018-07-06T20:18:41.552Z,1.40
2018-07-06T20:21:09.031Z,2.10
2018-07-06T20:23:36.575Z,1.83
2018-07-06T20:26:04.304Z,1.70
2018-07-06T20:28:31.827Z,1.63
2018-07-06T20:30:59.341Z,1.50
2018-07-06T20:33:26.902Z,1.40
2018-07-06T20:35:54.393Z,2.07
2018-07-06T20:38:21.826Z,1.73
2018-07-06T20:40:49.375Z,1.40
2018-07-06T20:43:16.895Z,1.80
2018-07-06T20:45:44.388Z,2.00
2018-07-06T20:48:11.811Z,2.00
2018-07-06T20:50:39.302Z,1.53
2018-07-06T20:53:06.843Z,1.80
2018-07-06T20:55:34.387Z,1.67
2018-07-06T20:58:01.806Z,1.30
2018-07-06T21:00:29.331Z,2.00
2018-07-06T21:02:56.809Z,1.77
2018-07-06T21:05:24.257Z,1.80
2018-07-06T21:07:51.735Z,1.93
2018-07-06T21:10:19.295Z,2.13
2018-07-06T21:12:46.710Z,2.10
2018-07-06T21:15:14.223Z,2.30
2018-07-06T21:17:41.642Z,2.00
2018-07-06T21:20:09.071Z,2.50
2018-07-06T21:22:36.502Z,1.90
2018-07-06T21:25:03.958Z,3.37
2018-07-06T21:27:31.325Z,2.70
2018-07-06T21:29:58.802Z,2.20
2018-07-06T21:32:27.002Z,2.10
2018-07-06T21:34:54.443Z,2.17
2018-07-06T21:37:21.808Z,2.70
2018-07-06T21:39:49.190Z,2.10
2018-07-06T21:42:16.554Z,2.27
2018-07-06T21:44:43.904Z,3.33
2018-07-06T21:47:11.413Z,2.40
2018-07-06T21:49:38.850Z,2.13
2018-07-06T21:52:06.222Z,2.57
2018-07-06T21:54:33.582Z,2.97
2018-07-06T21:57:01.007Z,2.13
2018-07-06T21:59:28.415Z,1.97
2018-07-06T22:01:55.802Z,2.40
2018-07-06T22:04:23.183Z,3.20
2018-07-06T22:06:50.653Z,2.20
2018-07-06T22:09:18.094Z,2.30
2018-07-06T22:11:45.730Z,2.57
2018-07-06T22:14:13.174Z,2.23
2018-07-06T22:16:40.607Z,2.87
2018-07-06T22:19:07.994Z,2.60
2018-07-06T22:21:35.469Z,2.40
2018-07-06T22:24:02.923Z,3.03
2018-07-06T22:26:30.282Z,3.90
2018-07-06T22:28:57.663Z,2.67
2018-07-06T22:31:26.389Z,2.63
2018-07-06T22:33:53.834Z,2.50
2018-07-06T22:36:21.231Z,2.90
2018-07-06T22:38:48.660Z,2.80
2018-07-06T22:41:16.059Z,4.00
2018-07-06T22:43:43.502Z,2.53
2018-07-06T22:46:10.984Z,3.53
2018-07-06T22:48:38.534Z,2.40
2018-07-06T22:51:05.910Z,2.57
2018-07-06T22:53:33.254Z,2.73
2018-07-06T22:56:00.644Z,3.37
2018-07-06T22:58:28.942Z,3.20
2018-07-06T23:00:56.290Z,2.70
2018-07-06T23:03:24.004Z,3.10
2018-07-06T23:05:51.796Z,2.97
2018-07-06T23:08:19.568Z,2.63
2018-07-06T23:10:47.498Z,3.20
2018-07-06T23:13:15.249Z,3.00
2018-07-06T23:15:43.116Z,3.90
2018-07-06T23:18:12.235Z,4.37
2018-07-06T23:20:40.503Z,2.80
2018-07-06T23:23:13.305Z,2.70
2018-07-06T23:25:44.538Z,3.00
2018-07-06T23:28:12.651Z,2.60
2018-07-06T23:30:40.790Z,2.93
2018-07-06T23:33:09.670Z,3.10
2018-07-06T23:35:38.037Z,2.63
2018-07-06T23:38:05.699Z,3.07
2018-07-06T23:40:33.351Z,3.07
2018-07-06T23:43:01.143Z,3.53
2018-07-06T23:45:28.997Z,2.80
2018-07-06T23:47:56.475Z,3.00
2018-07-06T23:50:24.103Z,3.30
2018-07-06T23:52:59.178Z,3.87
2018-07-06T23:55:26.537Z,3.40
2018-07-06T23:57:53.891Z,3.23
